Time;durP1;ratioP1;P1;durP2;ratioP2;P2;SDS_P1;SDS_P2;PMS_P1;PMS_P2;Temp;Humidity;BMP_temperature;BMP_pressure;BME280_temperature;BME280_humidity;BME280_pressure;Samples;Min_cycle;Max_cycle;Signal;HPM_P1;HPM_P2
2022/05/08 00:01:58;;;;;;;19.50;6.65;;;;;;;5.22;63.82;101011.35;1678818;85;22094;-78
2022/05/08 00:05:04;;;;;;;17.62;6.00;;;;;;;5.18;63.93;101008.05;1653781;86;21272;-82
2022/05/08 00:08:09;;;;;;;14.43;6.67;;;;;;;5.15;64.33;101009.64;1653546;86;21272;-82
2022/05/08 00:11:14;;;;;;;17.57;6.08;;;;;;;5.12;64.63;101009.87;1654700;86;21730;-79
2022/05/08 00:14:20;;;;;;;12.55;6.37;;;;;;;5.10;63.82;101011.38;1653104;86;21193;-79
2022/05/08 00:17:25;;;;;;;16.97;6.78;;;;;;;5.11;63.21;101007.66;1660803;84;21208;-78
2022/05/08 00:20:33;;;;;;;18.65;6.75;;;;;;;5.14;63.48;101009.28;1705368;84;21225;-78
2022/05/08 00:23:37;;;;;;;12.40;6.83;;;;;;;5.14;64.36;101005.21;1682030;85;21219;-78
2022/05/08 00:26:43;;;;;;;17.12;6.30;;;;;;;5.12;64.79;101001.25;1703981;84;21256;-78
2022/05/08 00:29:49;;;;;;;18.05;6.28;;;;;;;5.10;64.93;101001.02;1683346;85;21184;-78
2022/05/08 00:32:54;;;;;;;12.65;6.22;;;;;;;5.08;64.95;100996.20;1704747;84;21200;-78
2022/05/08 00:36:00;;;;;;;15.98;6.00;;;;;;;5.06;64.96;100999.54;1682492;85;21868;-78
2022/05/08 00:39:06;;;;;;;24.02;6.33;;;;;;;5.04;64.64;101002.87;1705459;84;21181;-78
2022/05/08 00:42:12;;;;;;;12.45;5.90;;;;;;;5.04;64.66;101005.59;1683032;85;21199;-78
2022/05/08 00:45:17;;;;;;;17.48;6.50;;;;;;;5.03;64.93;101004.70;1704888;84;21220;-78
2022/05/08 00:48:22;;;;;;;20.00;6.28;;;;;;;5.02;65.30;101007.55;1682331;84;21801;-78
2022/05/08 00:51:28;;;;;;;23.18;7.15;;;;;;;4.98;65.20;101002.00;1705263;84;21750;-78
2022/05/08 00:54:33;;;;;;;11.33;5.87;;;;;;;4.97;64.97;101003.84;1683341;85;21729;-78
2022/05/08 00:57:42;;;;;;;14.50;6.10;;;;;;;4.97;64.87;100994.86;1705160;83;21176;-78
2022/05/08 01:00:47;;;;;;;16.65;6.10;;;;;;;4.98;64.22;100995.22;1705551;84;21304;-78
2022/05/08 01:03:52;;;;;;;18.15;6.28;;;;;;;5.02;64.00;100999.41;1657044;85;21224;-78
2022/05/08 01:06:58;;;;;;;12.50;6.20;;;;;;;5.02;63.96;100992.14;1653117;86;21653;-78
2022/05/08 01:10:04;;;;;;;10.65;5.75;;;;;;;5.05;63.93;100988.33;1661938;84;21178;-78
2022/05/08 01:13:09;;;;;;;15.38;6.25;;;;;;;5.05;63.87;100981.55;1696141;84;21193;-78
2022/05/08 01:16:21;;;;;;;24.72;6.40;;;;;;;5.05;63.87;100986.98;1696351;84;21189;-78
2022/05/08 01:19:27;;;;;;;10.45;5.33;;;;;;;5.05;63.72;100981.05;1677305;85;21260;-78
2022/05/08 01:22:32;;;;;;;10.23;4.60;;;;;;;5.06;63.46;100988.69;1691005;83;21249;-78
2022/05/08 01:25:41;;;;;;;14.30;5.78;;;;;;;5.09;63.49;100984.39;1695542;84;21221;-78
2022/05/08 01:28:45;;;;;;;9.83;4.85;;;;;;;5.10;63.33;100984.75;1695974;83;21173;-78
2022/05/08 01:31:52;;;;;;;13.55;5.35;;;;;;;5.13;63.54;100983.16;1695338;84;21549;-78
2022/05/08 01:34:57;;;;;;;13.93;4.58;;;;;;;5.12;63.61;100984.98;1697375;84;21664;-78
2022/05/08 01:38:02;;;;;;;11.85;4.72;;;;;;;5.12;63.41;100978.69;1697433;84;21211;-78
2022/05/08 01:41:08;;;;;;;11.75;4.22;;;;;;;5.13;63.12;100978.59;1697322;84;21179;-78
2022/05/08 01:44:14;;;;;;;11.57;4.10;;;;;;;5.15;63.00;100977.09;1697080;84;21629;-78
2022/05/08 01:50:42;;;;;;;9.33;4.08;;;;;;;5.18;62.73;100978.22;1697118;84;21181;-78
2022/05/08 01:53:49;;;;;;;12.33;3.90;;;;;;;5.15;62.72;100976.23;1697233;84;21218;-78
2022/05/08 01:56:56;;;;;;;8.68;3.00;;;;;;;5.14;62.93;100976.73;1697197;84;21297;-78
2022/05/08 02:00:01;;;;;;;14.03;3.80;;;;;;;5.12;63.08;100975.48;1696112;84;21191;-78
2022/05/08 02:03:07;;;;;;;14.33;4.03;;;;;;;5.14;63.23;100972.67;1673722;84;21241;-78
2022/05/08 02:06:13;;;;;;;16.85;4.20;;;;;;;5.15;63.24;100978.95;1654290;86;21296;-78
2022/05/08 02:09:21;;;;;;;9.40;3.00;;;;;;;5.13;63.30;100982.66;1653216;86;21834;-78
2022/05/08 02:12:26;;;;;;;10.48;2.80;;;;;;;5.12;63.76;100980.05;1653999;86;21212;-78
2022/05/08 02:15:32;;;;;;;16.90;2.72;;;;;;;5.15;64.03;100987.09;1678614;84;21458;-78
2022/05/08 02:18:37;;;;;;;14.90;2.55;;;;;;;5.17;64.12;100988.67;1692595;83;21221;-78
2022/05/08 02:21:42;;;;;;;7.03;2.80;;;;;;;5.19;64.13;100985.36;1696921;83;21174;-78
2022/05/08 02:24:47;;;;;;;13.68;3.17;;;;;;;5.21;64.27;100979.30;1669042;86;21150;-77
2022/05/08 02:27:54;;;;;;;8.13;3.00;;;;;;;5.25;63.75;100991.62;1667929;84;21224;-77
2022/05/08 02:30:59;;;;;;;11.85;2.77;;;;;;;5.30;63.75;100997.53;1657389;86;21202;-78
2022/05/08 02:34:05;;;;;;;18.73;2.87;;;;;;;5.46;63.74;100998.98;1682866;84;21224;-78
2022/05/08 02:37:12;;;;;;;5.45;2.58;;;;;;;5.69;63.65;100992.50;1711901;83;22246;-78
2022/05/08 02:40:18;;;;;;;7.03;2.83;;;;;;;6.01;63.17;100995.26;1712180;83;21536;-77
2022/05/08 02:43:23;;;;;;;11.55;3.58;;;;;;;6.35;62.52;100994.61;1713826;83;21837;-77
2022/05/08 02:46:29;;;;;;;4.90;2.58;;;;;;;6.62;61.78;100996.77;1711872;83;21188;-78
2022/05/08 02:49:34;;;;;;;4.87;2.20;;;;;;;6.89;61.25;100996.20;1717234;83;21161;-78
2022/05/08 02:52:39;;;;;;;6.40;2.70;;;;;;;7.12;60.50;101003.67;1716993;83;21559;-77
2022/05/08 02:59:10;;;;;;;7.80;2.83;;;;;;;7.55;59.15;101005.73;1713160;83;21165;-78
2022/05/08 03:02:16;;;;;;;16.77;3.12;;;;;;;7.82;58.43;101004.57;1715865;83;21247;-78
2022/05/08 03:05:22;;;;;;;11.05;2.55;;;;;;;8.16;57.07;101012.33;1691420;84;21181;-77
2022/05/08 03:08:28;;;;;;;11.78;2.60;;;;;;;8.56;55.61;101003.13;1699603;83;21240;-78
2022/05/08 03:11:36;;;;;;;11.97;2.87;;;;;;;8.98;54.26;101006.81;1711904;83;21546;-78
2022/05/08 03:14:41;;;;;;;11.40;2.98;;;;;;;9.36;52.79;101009.41;1683926;85;21279;-82
2022/05/08 03:17:47;;;;;;;5.55;2.30;;;;;;;9.66;51.53;101011.45;1656929;85;21784;-78
2022/05/08 03:20:59;;;;;;;6.17;2.50;;;;;;;9.84;50.72;101015.58;1626367;86;21223;-83
2022/05/08 03:24:04;;;;;;;8.93;2.42;;;;;;;10.02;49.93;101017.83;1623412;88;21819;-82
2022/05/08 03:27:09;;;;;;;8.75;2.60;;;;;;;10.23;49.18;101012.89;1636267;87;21165;-82
2022/05/08 03:30:17;;;;;;;11.20;2.55;;;;;;;10.49;48.56;101016.20;1606613;88;21720;-82
2022/05/08 03:33:23;;;;;;;8.68;2.20;;;;;;;10.78;47.82;101014.56;1598883;88;21518;-82
2022/05/08 03:36:29;;;;;;;13.28;2.08;;;;;;;11.07;47.17;101010.63;1641692;86;21757;-82
2022/05/08 03:39:34;;;;;;;9.85;2.40;;;;;;;11.35;47.44;101015.40;1619625;88;21749;-82
2022/05/08 03:42:39;;;;;;;6.62;2.40;;;;;;;11.62;46.80;101018.39;1623178;88;21199;-82
2022/05/08 03:45:48;;;;;;;13.28;3.05;;;;;;;11.90;45.97;101015.80;1622837;88;21192;-82
2022/05/08 03:48:54;;;;;;;11.03;2.50;;;;;;;12.14;45.31;101023.70;1619622;86;21657;-81
2022/05/08 03:51:59;;;;;;;11.73;2.45;;;;;;;12.27;44.85;101024.06;1622543;88;21259;-82
2022/05/08 03:55:05;;;;;;;9.95;2.40;;;;;;;12.35;44.46;101025.45;1621833;88;21207;-82
2022/05/08 03:58:10;;;;;;;9.18;2.55;;;;;;;12.41;44.49;101030.76;1621692;88;21733;-82
2022/05/08 04:01:15;;;;;;;10.18;2.40;;;;;;;12.45;44.61;101030.25;1623050;88;21167;-82
2022/05/08 04:04:22;;;;;;;14.87;3.00;;;;;;;12.47;45.13;101041.07;1623204;88;21179;-82
2022/05/08 04:07:28;;;;;;;6.22;2.47;;;;;;;12.54;46.05;101040.20;1622660;88;21256;-82
2022/05/08 04:10:33;;;;;;;3.80;2.08;;;;;;;12.63;46.45;101040.20;1620097;88;21589;-82
2022/05/08 04:13:38;;;;;;;12.80;2.05;;;;;;;12.72;46.35;101034.53;1622390;88;21309;-82
2022/05/08 04:16:44;;;;;;;13.30;2.72;;;;;;;12.85;46.31;101042.77;1622413;86;21224;-82
2022/05/08 04:19:43;;;;;;;7.75;2.45;;;;;;;12.95;45.92;101037.43;1635049;84;21222;-82
2022/05/08 04:26:12;;;;;;;6.45;2.20;;;;;;;13.23;45.52;101041.19;1669829;85;21170;-82
2022/05/08 04:29:18;;;;;;;4.83;2.10;;;;;;;13.39;44.96;101043.86;1669863;85;21227;-82
2022/05/08 04:32:22;;;;;;;11.05;2.45;;;;;;;13.51;44.69;101042.98;1671654;84;21744;-83
2022/05/08 04:35:27;;;;;;;22.82;2.40;;;;;;;13.64;44.70;101045.99;1672451;84;21497;-83
2022/05/08 04:38:33;;;;;;;7.17;1.98;;;;;;;13.80;43.27;101043.70;1622698;88;21187;-82
2022/05/08 04:41:40;;;;;;;7.12;1.82;;;;;;;13.90;43.22;101042.95;1643801;86;21871;-82
2022/05/08 04:44:46;;;;;;;12.45;3.33;;;;;;;13.99;42.70;101049.27;1642903;86;21735;-82
2022/05/08 04:47:51;;;;;;;12.50;2.27;;;;;;;14.05;42.71;101050.77;1648576;85;21237;-82
2022/05/08 04:50:58;;;;;;;11.80;1.70;;;;;;;14.17;42.12;101058.11;1640298;85;21231;-82
2022/05/08 04:54:04;;;;;;;7.22;2.35;;;;;;;14.28;42.01;101059.05;1670251;84;21194;-82
2022/05/08 04:57:11;;;;;;;12.60;2.10;;;;;;;14.41;41.88;101057.08;1670091;85;21173;-82
2022/05/08 05:00:17;;;;;;;9.13;2.08;;;;;;;14.51;41.59;101060.47;1680770;84;21166;-82
2022/05/08 05:03:22;;;;;;;10.85;2.25;;;;;;;14.63;41.67;101057.27;1668457;84;21224;-82
2022/05/08 05:06:27;;;;;;;11.20;2.67;;;;;;;14.78;41.28;101054.92;1672574;84;21174;-82
2022/05/08 05:09:33;;;;;;;7.95;2.10;;;;;;;14.92;41.09;101053.77;1671962;84;21237;-82
2022/05/08 05:12:38;;;;;;;10.05;2.85;;;;;;;15.05;40.66;101045.17;1670374;85;21225;-82
2022/05/08 05:15:43;;;;;;;11.70;2.75;;;;;;;15.24;40.49;101045.17;1644920;86;21241;-82
2022/05/08 05:18:49;;;;;;;7.80;1.92;;;;;;;15.43;39.87;101051.14;1668851;84;21850;-82
2022/05/08 05:21:54;;;;;;;11.88;2.00;;;;;;;15.58;39.52;101054.77;1666313;85;21246;-82
2022/05/08 05:25:05;;;;;;;8.98;2.08;;;;;;;15.70;39.04;101053.78;1664784;85;21795;-82
2022/05/08 05:28:05;;;;;;;5.28;2.30;;;;;;;15.81;38.75;101051.94;1664933;85;21819;-82
2022/05/08 05:31:12;;;;;;;7.15;1.72;;;;;;;15.92;38.75;101056.94;1664315;86;21167;-81
2022/05/08 05:34:17;;;;;;;9.20;2.20;;;;;;;16.04;38.43;101058.16;1629223;86;21884;-82
2022/05/08 05:37:23;;;;;;;13.40;2.60;;;;;;;16.11;38.74;101060.99;1627582;86;21234;-83
2022/05/08 05:40:28;;;;;;;11.25;2.00;;;;;;;16.21;39.04;101053.25;1660500;86;21705;-82
2022/05/08 05:43:34;;;;;;;6.83;1.87;;;;;;;16.32;38.31;101055.48;1657063;85;21160;-82
2022/05/08 05:50:03;;;;;;;8.58;2.20;;;;;;;16.57;36.95;101056.50;1665019;85;21190;-82
2022/05/08 05:53:10;;;;;;;13.62;2.75;;;;;;;16.66;37.13;101064.13;1660738;84;21268;-82
2022/05/08 05:56:15;;;;;;;10.70;1.80;;;;;;;16.76;36.08;101061.91;1659133;85;21195;-82
2022/05/08 05:59:22;;;;;;;10.25;2.80;;;;;;;16.86;34.90;101065.19;1660684;84;21179;-82
2022/05/08 06:02:29;;;;;;;17.80;2.25;;;;;;;16.90;33.80;101069.27;1664662;84;21214;-82
2022/05/08 06:05:35;;;;;;;14.98;2.75;;;;;;;16.99;34.12;101059.78;1660580;86;21801;-82
2022/05/08 06:08:40;;;;;;;7.30;2.15;;;;;;;17.08;33.77;101057.20;1663695;84;21871;-82
2022/05/08 06:11:45;;;;;;;5.95;2.40;;;;;;;17.16;34.31;101061.70;1667867;84;21242;-82
2022/05/08 06:14:51;;;;;;;15.38;2.00;;;;;;;17.29;35.15;101058.19;1632983;86;21720;-82
2022/05/08 06:17:57;;;;;;;4.55;1.92;;;;;;;17.37;35.25;101057.50;1630251;86;21877;-82
2022/05/08 06:21:03;;;;;;;15.68;2.67;;;;;;;17.49;35.57;101064.69;1636142;86;21595;-82
2022/05/08 06:24:08;;;;;;;8.38;1.85;;;;;;;17.61;35.55;101065.83;1677153;84;21213;-79
2022/05/08 06:27:14;;;;;;;11.45;2.10;;;;;;;17.63;34.49;101055.94;1677818;84;21181;-83
2022/05/08 06:30:21;;;;;;;12.15;2.12;;;;;;;17.69;35.49;101057.02;1636187;86;21196;-79
2022/05/08 06:33:26;;;;;;;11.78;2.20;;;;;;;17.71;34.88;101057.69;1683027;84;21229;-83
2022/05/08 06:36:32;;;;;;;7.50;2.65;;;;;;;17.72;33.84;101061.63;1674328;84;21250;-83
2022/05/08 06:39:38;;;;;;;11.53;2.22;;;;;;;17.84;34.21;101064.71;1619379;86;21227;-83
2022/05/08 06:42:45;;;;;;;12.50;2.00;;;;;;;17.96;32.77;101063.05;1674988;84;21213;-83
2022/05/08 06:45:51;;;;;;;8.73;2.33;;;;;;;18.01;32.56;101064.66;1634808;86;21202;-82
2022/05/08 06:48:57;;;;;;;5.10;1.82;;;;;;;17.99;32.10;101059.02;1668713;84;21189;-83
2022/05/08 06:52:03;;;;;;;11.33;2.35;;;;;;;18.01;31.13;101062.42;1674578;84;22185;-83
2022/05/08 06:55:08;;;;;;;6.12;1.90;;;;;;;18.10;31.73;101059.27;1674363;84;21237;-83
2022/05/08 06:58:13;;;;;;;5.17;1.98;;;;;;;18.18;30.96;101060.16;1673517;84;21158;-83
2022/05/08 07:01:35;;;;;;;6.78;1.90;;;;;;;18.26;29.90;101051.67;1622332;86;21204;-83
2022/05/08 07:04:43;;;;;;;11.00;1.77;;;;;;;18.45;29.35;101056.94;1638076;85;21210;-83
2022/05/08 07:07:50;;;;;;;10.45;1.70;;;;;;;18.57;28.34;101057.47;1640347;85;22386;-82
2022/05/08 07:10:56;;;;;;;13.05;1.80;;;;;;;18.68;28.45;101062.94;1645693;85;21197;-83
2022/05/08 07:14:01;;;;;;;3.17;1.42;;;;;;;18.75;27.90;101058.81;1642466;85;21591;-79
2022/05/08 07:17:10;;;;;;;14.05;2.30;;;;;;;18.80;27.51;101057.64;1642088;85;21859;-83
2022/05/08 07:20:18;;;;;;;6.20;1.72;;;;;;;18.66;28.37;101056.73;1640683;86;21604;-82
2022/05/08 07:23:23;;;;;;;8.20;1.82;;;;;;;18.68;29.87;101051.86;1640921;85;21246;-79
2022/05/08 07:26:28;;;;;;;16.67;2.60;;;;;;;18.82;30.18;101061.03;1664960;84;21796;-79
2022/05/08 07:29:35;;;;;;;10.80;2.45;;;;;;;18.96;31.11;101051.69;1662122;84;21723;-79
2022/05/08 07:32:42;;;;;;;9.43;2.90;;;;;;;19.07;29.95;101056.58;1664865;84;21194;-79
2022/05/08 07:39:11;;;;;;;5.58;2.37;;;;;;;19.07;27.12;101046.87;1667875;84;21189;-79
2022/05/08 07:42:17;;;;;;;7.62;2.12;;;;;;;19.08;27.93;101042.17;1664867;84;21213;-79
2022/05/08 07:45:22;;;;;;;14.83;2.77;;;;;;;19.19;28.61;101037.89;1662081;84;21803;-79
2022/05/08 07:48:28;;;;;;;8.63;2.72;;;;;;;19.23;27.30;101045.56;1659928;84;21216;-79
2022/05/08 07:51:34;;;;;;;6.22;2.30;;;;;;;19.21;27.37;101039.93;1669873;84;21558;-79
2022/05/08 07:54:40;;;;;;;4.20;1.95;;;;;;;19.06;27.53;101041.02;1666308;84;21487;-79
2022/05/08 07:57:46;;;;;;;9.80;2.50;;;;;;;18.95;26.90;101038.87;1664697;84;21400;-79
2022/05/08 08:00:56;;;;;;;12.55;2.62;;;;;;;18.89;27.63;101034.19;1661975;84;21251;-80
2022/05/08 08:04:02;;;;;;;6.08;2.35;;;;;;;18.90;28.12;101022.88;1660584;84;21200;-80
2022/05/08 08:07:09;;;;;;;10.53;2.42;;;;;;;19.04;26.68;101022.34;1666058;84;21843;-77
2022/05/08 08:10:15;;;;;;;11.28;2.58;;;;;;;19.19;28.51;101026.80;1652283;85;21215;-77
2022/05/08 08:13:22;;;;;;;8.05;2.77;;;;;;;19.31;27.89;101027.32;1665392;84;22242;-78
2022/05/08 08:16:28;;;;;;;7.97;2.90;;;;;;;19.37;27.77;101022.82;1665653;84;21198;-78
2022/05/08 08:19:35;;;;;;;14.53;3.58;;;;;;;19.37;27.86;101020.05;1661423;84;21250;-78
2022/05/08 08:22:42;;;;;;;8.33;3.02;;;;;;;19.43;28.38;101018.31;1661506;84;21233;-78
2022/05/08 08:25:52;;;;;;;10.45;3.33;;;;;;;19.46;30.59;101014.58;1670197;84;21424;-78
2022/05/08 08:29:00;;;;;;;10.60;2.80;;;;;;;19.54;29.82;101015.74;1662043;84;21294;-80
2022/05/08 08:32:07;;;;;;;10.93;3.22;;;;;;;19.59;27.84;101007.61;1664612;84;21216;-79
2022/05/08 08:35:19;;;;;;;13.60;3.65;;;;;;;19.55;26.42;101009.11;1656821;86;21322;-79
2022/05/08 08:38:24;;;;;;;12.35;3.72;;;;;;;19.51;27.02;101000.91;1611138;88;21200;-83
2022/05/08 08:41:33;;;;;;;9.58;3.40;;;;;;;19.43;26.28;101003.91;1654659;86;21244;-84
2022/05/08 08:48:14;;;;;;;11.55;3.50;;;;;;;19.37;26.81;100993.69;1666215;84;21242;-84
2022/05/08 08:51:20;;;;;;;9.45;4.12;;;;;;;19.31;28.17;100998.73;1662063;84;21191;-83
2022/05/08 08:54:27;;;;;;;16.25;3.02;;;;;;;19.12;27.58;100997.70;1656101;86;21183;-83
2022/05/08 08:57:32;;;;;;;9.88;2.50;;;;;;;18.97;27.64;100994.32;1656151;85;21833;-83
2022/05/08 09:00:38;;;;;;;5.00;2.30;;;;;;;18.88;28.99;100999.23;1663053;86;21775;-83
2022/05/08 09:03:44;;;;;;;4.75;2.30;;;;;;;18.77;27.82;100996.58;1662215;84;21235;-83
2022/05/08 09:06:51;;;;;;;9.08;2.50;;;;;;;18.60;29.35;100996.10;1660827;86;21759;-84
2022/05/08 09:09:56;;;;;;;6.10;2.67;;;;;;;18.49;29.33;100993.98;1657501;86;21177;-83
2022/05/08 09:13:09;;;;;;;9.88;2.95;;;;;;;18.54;29.32;100996.96;1663976;84;21728;-83
2022/05/08 09:16:15;;;;;;;6.00;2.80;;;;;;;18.67;29.83;100984.16;1644516;84;21205;-83
2022/05/08 09:19:20;;;;;;;17.07;3.90;;;;;;;18.81;31.34;100983.97;1657412;84;21509;-83
2022/05/08 09:22:19;;;;;;;9.75;2.75;;;;;;;18.99;31.68;100983.86;1668024;86;21727;-83
2022/05/08 09:25:12;;;;;;;8.40;2.65;;;;;;;19.11;29.27;100980.22;1641483;85;21202;-82
2022/05/08 09:28:15;;;;;;;13.13;3.50;;;;;;;19.20;28.01;100980.00;1673433;84;21253;-83
2022/05/08 09:31:22;;;;;;;10.25;3.62;;;;;;;19.22;28.57;100979.23;1668728;84;21198;-83
2022/05/08 09:34:27;;;;;;;11.53;4.22;;;;;;;19.22;28.17;100980.08;1683625;84;21552;-83
2022/05/08 09:37:33;;;;;;;10.88;3.80;;;;;;;19.15;27.18;100974.56;1692738;84;21257;-83
2022/05/08 09:40:38;;;;;;;9.38;4.58;;;;;;;19.01;26.53;100977.05;1663791;85;21744;-82
2022/05/08 09:43:44;;;;;;;16.48;4.75;;;;;;;18.78;26.15;100972.48;1638158;87;21299;-83
2022/05/08 09:46:51;;;;;;;18.95;4.60;;;;;;;18.67;27.58;100972.54;1652172;84;21205;-83
2022/05/08 09:49:58;;;;;;;19.12;5.53;;;;;;;18.61;26.31;100978.41;1667111;85;21265;-82
2022/05/08 09:53:03;;;;;;;12.98;5.17;;;;;;;18.63;26.96;100974.91;1672724;85;21861;-83
2022/05/08 09:56:12;;;;;;;10.40;4.92;;;;;;;18.71;29.73;100973.01;1637695;86;21207;-83
2022/05/08 09:59:19;;;;;;;21.95;5.45;;;;;;;18.80;27.87;100974.50;1682165;84;21195;-83
2022/05/08 10:02:24;;;;;;;12.37;4.85;;;;;;;18.79;27.45;100970.03;1649812;86;21576;-83
2022/05/08 10:05:29;;;;;;;17.02;5.55;;;;;;;18.79;28.03;100967.25;1626230;86;21251;-83
2022/05/08 10:08:45;;;;;;;12.88;4.60;;;;;;;18.77;28.25;100967.98;1681999;84;21215;-83
2022/05/08 10:15:40;;;;;;;8.38;3.58;;;;;;;18.79;29.18;100961.17;1686479;84;21190;-83
2022/05/08 10:18:47;;;;;;;11.88;4.58;;;;;;;18.86;27.29;100956.46;1674421;84;21247;-83
2022/05/08 10:22:16;;;;;;;15.95;4.70;;;;;;;18.81;27.37;100956.25;1675924;84;21229;-83
2022/05/08 10:25:21;;;;;;;10.48;4.58;;;;;;;18.79;28.30;100954.25;1647240;86;21204;-82
2022/05/08 10:28:27;;;;;;;14.25;5.67;;;;;;;18.80;27.51;100949.55;1661261;84;21210;-83
2022/05/08 10:31:57;;;;;;;11.05;4.72;;;;;;;18.83;27.04;100948.59;1701205;83;21210;-78
2022/05/08 10:35:17;;;;;;;18.40;4.35;;;;;;;18.89;27.19;100935.25;1673176;85;21743;-78
2022/05/08 10:38:29;;;;;;;17.95;5.22;;;;;;;18.96;27.99;100935.26;1710196;84;21229;-78
2022/05/08 10:41:53;;;;;;;13.78;5.22;;;;;;;19.02;28.39;100929.38;1704255;83;21171;-78
2022/05/08 10:44:59;;;;;;;11.97;5.25;;;;;;;19.10;29.13;100933.28;1689123;83;21761;-78
2022/05/08 10:48:07;;;;;;;8.53;5.70;;;;;;;19.19;27.99;100929.20;1669697;85;21159;-78
2022/05/08 10:51:13;;;;;;;13.88;4.95;;;;;;;19.23;28.48;100924.92;1674809;85;21230;-78
2022/05/08 10:54:18;;;;;;;13.32;5.50;;;;;;;19.23;28.55;100925.47;1695354;83;21215;-78
2022/05/08 10:57:24;;;;;;;19.17;6.08;;;;;;;19.18;27.66;100912.80;1667322;85;21212;-78
2022/05/08 11:00:33;;;;;;;14.15;6.25;;;;;;;19.15;28.04;100916.34;1658428;85;21178;-78
2022/05/08 11:03:40;;;;;;;16.52;5.90;;;;;;;19.19;28.79;100913.95;1651509;85;22463;-79
2022/05/08 11:06:46;;;;;;;12.68;5.70;;;;;;;19.26;29.46;100905.09;1679504;85;21795;-78
2022/05/08 11:09:51;;;;;;;10.45;5.62;;;;;;;19.29;27.40;100908.82;1634039;86;21203;-78
2022/05/08 11:13:22;;;;;;;13.72;5.78;;;;;;;19.24;26.56;100911.91;1616527;88;21877;-82
2022/05/08 11:16:41;;;;;;;18.12;6.17;;;;;;;19.12;26.27;100906.20;1642342;86;21274;-83
2022/05/08 11:19:59;;;;;;;12.43;5.65;;;;;;;19.10;28.04;100894.47;1657508;85;21190;-78
2022/05/08 11:23:05;;;;;;;11.45;5.65;;;;;;;19.17;27.88;100893.08;1656060;86;21272;-79
2022/05/08 11:26:13;;;;;;;10.68;5.87;;;;;;;19.29;30.24;100889.91;1638559;86;21301;-83
2022/05/08 11:29:21;;;;;;;12.60;6.40;;;;;;;19.37;28.67;100889.67;1667409;84;21253;-83
2022/05/08 11:36:07;;;;;;;12.68;5.87;;;;;;;19.21;27.08;100876.32;1679033;84;21236;-78
2022/05/08 11:39:21;;;;;;;11.35;5.67;;;;;;;19.20;27.86;100875.47;1679569;84;21190;-83
2022/05/08 11:42:27;;;;;;;12.35;6.35;;;;;;;19.18;27.53;100871.20;1645378;86;21336;-83
2022/05/08 11:45:35;;;;;;;11.35;5.30;;;;;;;19.15;28.00;100867.81;1668129;86;21178;-83
2022/05/08 11:48:43;;;;;;;11.33;5.78;;;;;;;19.18;27.52;100867.05;1671796;85;21228;-83
2022/05/08 11:51:53;;;;;;;22.42;5.85;;;;;;;19.19;27.75;100861.80;1684355;85;21203;-79
2022/05/08 11:55:04;;;;;;;17.60;6.47;;;;;;;19.19;27.93;100854.33;1641556;87;21252;-83
2022/05/08 11:58:10;;;;;;;15.50;5.62;;;;;;;19.18;28.07;100844.31;1641757;87;21237;-83
2022/05/08 12:01:15;;;;;;;20.60;5.28;;;;;;;19.16;27.27;100849.25;1641869;87;21194;-78
2022/05/08 12:04:35;;;;;;;19.37;5.80;;;;;;;19.15;27.39;100847.02;1651275;87;21189;-78
2022/05/08 12:07:47;;;;;;;15.50;6.65;;;;;;;19.15;27.17;100842.85;1659601;86;21217;-79
2022/05/08 12:10:52;;;;;;;15.70;5.65;;;;;;;19.18;27.03;100832.38;1668238;86;21206;-79
2022/05/08 12:14:13;;;;;;;15.23;5.53;;;;;;;19.21;27.71;100832.80;1668412;86;21242;-79
2022/05/08 12:17:19;;;;;;;14.50;6.22;;;;;;;19.22;26.94;100823.94;1668556;86;21246;-79
2022/05/08 12:20:30;;;;;;;14.50;5.03;;;;;;;19.24;26.74;100826.79;1668945;86;21175;-79
2022/05/08 12:23:35;;;;;;;12.98;5.20;;;;;;;19.26;27.33;100828.83;1668421;86;21234;-79
2022/05/08 12:26:43;;;;;;;18.23;6.75;;;;;;;19.27;26.32;100816.66;1668637;86;21190;-79
2022/05/08 12:29:50;;;;;;;10.68;5.47;;;;;;;19.27;26.54;100819.97;1671633;85;21310;-79
2022/05/08 12:32:57;;;;;;;13.03;6.37;;;;;;;19.26;26.83;100807.18;1691936;84;21193;-78
2022/05/08 12:36:02;;;;;;;12.05;5.62;;;;;;;19.27;28.71;100811.64;1662631;84;21209;-78
2022/05/08 12:39:08;;;;;;;15.48;5.75;;;;;;;19.28;28.32;100805.02;1650664;87;21830;-78
2022/05/08 12:42:13;;;;;;;10.45;5.78;;;;;;;19.28;28.17;100803.63;1651154;87;21783;-78
2022/05/08 12:45:19;;;;;;;12.75;5.42;;;;;;;19.29;28.21;100805.33;1651111;87;21706;-78
2022/05/08 12:48:24;;;;;;;10.58;5.42;;;;;;;19.28;27.83;100796.70;1688879;84;21543;-79
2022/05/08 12:51:30;;;;;;;11.95;6.00;;;;;;;19.30;28.63;100795.95;1705573;84;21740;-78
2022/05/08 12:54:37;;;;;;;9.63;4.78;;;;;;;19.31;29.03;100801.81;1706052;84;21214;-79
2022/05/08 13:01:06;;;;;;;12.73;5.90;;;;;;;19.32;29.10;100789.10;1654683;85;21819;-79
2022/05/08 13:04:12;;;;;;;11.50;5.37;;;;;;;19.30;27.64;100794.03;1651357;87;21189;-78
2022/05/08 13:07:18;;;;;;;20.17;5.67;;;;;;;19.25;27.49;100788.84;1650206;87;21240;-78
2022/05/08 13:10:23;;;;;;;18.15;5.37;;;;;;;19.20;26.88;100780.34;1651271;87;21842;-78
2022/05/08 13:13:37;;;;;;;12.65;4.87;;;;;;;19.12;26.57;100774.51;1650371;87;21801;-78
2022/05/08 13:16:37;;;;;;;12.78;5.80;;;;;;;19.07;26.85;100779.86;1656814;85;21794;-83
2022/05/08 13:19:46;;;;;;;18.65;5.62;;;;;;;19.04;27.44;100776.98;1676171;84;21555;-83
2022/05/08 13:22:46;;;;;;;12.25;5.60;;;;;;;19.02;27.15;100767.20;1648963;86;21717;-83
2022/05/08 13:25:39;;;;;;;9.50;4.62;;;;;;;19.01;26.87;100763.59;1688142;84;21155;-84
2022/05/08 13:28:47;;;;;;;19.32;5.30;;;;;;;19.01;26.87;100759.97;1673495;85;21241;-84
2022/05/08 13:31:57;;;;;;;11.08;5.53;;;;;;;19.01;27.49;100764.12;1651396;85;21310;-83
2022/05/08 13:35:02;;;;;;;13.48;4.95;;;;;;;18.99;27.08;100757.39;1676172;85;21192;-83
2022/05/08 13:38:10;;;;;;;19.42;5.00;;;;;;;18.99;27.14;100757.39;1655394;85;21579;-83
2022/05/08 13:41:15;;;;;;;12.05;4.75;;;;;;;18.98;27.07;100762.63;1652611;85;21236;-83
2022/05/08 13:44:23;;;;;;;10.03;5.30;;;;;;;18.96;27.52;100756.98;1652072;87;21781;-83
2022/05/08 13:47:29;;;;;;;12.55;5.33;;;;;;;18.96;28.57;100750.05;1664972;85;21209;-84
2022/05/08 13:50:34;;;;;;;12.35;5.00;;;;;;;18.95;29.27;100753.36;1652390;86;21206;-84
2022/05/08 13:53:39;;;;;;;13.85;5.25;;;;;;;18.95;29.02;100746.42;1659098;86;21749;-84
2022/05/08 13:56:45;;;;;;;9.23;4.70;;;;;;;18.94;28.41;100748.89;1701676;84;21248;-83
2022/05/08 13:59:53;;;;;;;13.13;4.70;;;;;;;18.93;28.75;100744.42;1701654;84;21182;-84
2022/05/08 14:03:00;;;;;;;18.57;4.97;;;;;;;18.90;29.35;100738.77;1702015;84;21827;-80
2022/05/08 14:06:09;;;;;;;10.08;4.30;;;;;;;18.87;29.00;100740.62;1700271;84;21190;-79
2022/05/08 14:09:15;;;;;;;15.83;5.03;;;;;;;18.83;28.19;100746.83;1701522;84;21209;-79
2022/05/08 14:12:23;;;;;;;14.03;5.45;;;;;;;18.80;28.42;100736.17;1702258;84;21230;-79
2022/05/08 14:15:28;;;;;;;12.80;4.83;;;;;;;18.78;29.06;100736.94;1702031;84;21150;-79
2022/05/08 14:18:35;;;;;;;11.43;4.78;;;;;;;18.75;29.07;100735.98;1700955;84;21210;-79
2022/05/08 14:21:40;;;;;;;9.73;5.08;;;;;;;18.69;28.56;100731.33;1701335;84;21194;-79
2022/05/08 14:24:46;;;;;;;21.37;5.42;;;;;;;18.66;28.52;100728.41;1701490;84;21245;-80
2022/05/08 14:27:52;;;;;;;12.65;4.50;;;;;;;18.63;28.91;100730.22;1642291;87;21234;-80
2022/05/08 14:37:45;;;;;;;10.72;5.10;;;;;;;18.67;27.92;100719.56;1640354;87;21233;-77
2022/05/08 14:40:51;;;;;;;11.78;4.90;;;;;;;18.67;29.62;100719.56;1640736;87;21237;-78
2022/05/08 14:43:57;;;;;;;7.37;4.22;;;;;;;18.64;29.87;100718.09;1640522;87;21273;-77
2022/05/08 14:47:02;;;;;;;11.97;4.25;;;;;;;18.62;28.98;100716.91;1646839;85;21237;-78
2022/05/08 14:50:08;;;;;;;12.55;4.40;;;;;;;18.57;28.29;100712.56;1689766;85;21176;-77
2022/05/08 14:53:15;;;;;;;11.30;4.78;;;;;;;18.53;27.99;100710.45;1684786;84;21775;-78
2022/05/08 14:56:21;;;;;;;9.48;4.60;;;;;;;18.48;28.00;100708.88;1667718;84;21222;-78
2022/05/08 14:59:22;;;;;;;8.65;4.05;;;;;;;18.43;28.26;100707.30;1642242;84;21163;-83
2022/05/08 15:02:27;;;;;;;10.75;4.80;;;;;;;18.39;27.98;100706.88;1654903;84;21245;-83